Time;durP1;ratioP1;P1;durP2;ratioP2;P2;SDS_P1;SDS_P2;PMS_P1;PMS_P2;Temp;Humidity;BMP_temperature;BMP_pressure;BME280_temperature;BME280_humidity;BME280_pressure;Samples;Min_cycle;Max_cycle;Signal;HPM_P1;HPM_P2
2023/05/31 00:02:21;;;;;;;10.17;9.67;;;17.10;64.70;;;;;;5029150;28;20518;-77
2023/05/31 00:04:48;;;;;;;9.93;9.43;;;16.30;65.60;;;;;;5029226;28;20460;-79
2023/05/31 00:07:15;;;;;;;10.37;9.63;;;17.20;65.70;;;;;;5029563;28;20468;-78
2023/05/31 00:09:41;;;;;;;12.17;11.63;;;17.00;65.90;;;;;;5029278;28;20488;-78
2023/05/31 00:12:09;;;;;;;9.90;9.40;;;17.00;64.50;;;;;;5029105;28;20453;-78
2023/05/31 00:14:36;;;;;;;11.20;10.60;;;16.90;64.70;;;;;;5029115;28;20465;-78
2023/05/31 04:10:11;;;;;;;14.53;11.20;;;14.80;82.10;;;;;;5794802;23;20626;-77
2023/05/31 04:12:37;;;;;;;12.67;12.00;;;14.80;82.80;;;;;;5033231;28;20452;-77
2023/05/31 04:15:05;;;;;;;12.77;12.07;;;14.80;83.90;;;;;;5033143;28;21019;-75
2023/05/31 04:17:32;;;;;;;12.70;12.10;;;14.80;84.90;;;;;;5033157;28;20484;-77
2023/05/31 04:19:59;;;;;;;12.07;11.43;;;14.80;85.30;;;;;;5033100;28;20488;-77
2023/05/31 04:22:25;;;;;;;11.40;10.90;;;14.80;86.10;;;;;;5033295;28;20445;-77
2023/05/31 04:24:52;;;;;;;12.40;11.60;;;14.80;86.40;;;;;;5033043;28;20824;-78
2023/05/31 04:27:20;;;;;;;14.13;13.43;;;15.00;89.30;;;;;;5033127;28;20455;-76
2023/05/31 04:29:50;;;;;;;13.10;12.23;;;15.20;87.60;;;;;;5032987;28;20461;-78
2023/05/31 04:32:17;;;;;;;12.37;11.60;;;15.50;85.50;;;;;;5032877;28;20972;-78
2023/05/31 04:34:43;;;;;;;12.67;11.97;;;16.20;84.00;;;;;;5033328;28;20511;-76
2023/05/31 04:37:10;;;;;;;14.60;13.10;;;16.80;80.00;;;;;;5033849;28;20481;-86
2023/05/31 04:39:37;;;;;;;12.87;12.27;;;17.10;78.70;;;;;;5034678;28;20483;-76
2023/05/31 04:42:11;;;;;;;12.70;11.90;;;17.70;77.00;;;;;;5032948;28;21032;-74
2023/05/31 04:44:39;;;;;;;14.70;13.30;;;18.20;74.50;;;;;;5031506;28;20452;-74
2023/05/31 04:47:06;;;;;;;13.27;12.37;;;18.30;73.90;;;;;;5032500;28;20747;-74
2023/05/31 04:49:33;;;;;;;12.90;11.90;;;18.90;72.20;;;;;;5032365;28;20455;-75
2023/05/31 04:52:00;;;;;;;11.97;11.23;;;19.70;72.60;;;;;;5030759;28;20819;-74
2023/05/31 04:54:26;;;;;;;12.67;11.80;;;19.70;71.10;;;;;;5032487;28;20453;-74
2023/05/31 04:56:54;;;;;;;13.33;12.63;;;19.90;67.40;;;;;;5031996;28;20453;-75
2023/05/31 04:59:20;;;;;;;14.23;13.23;;;20.20;67.50;;;;;;5031941;28;20914;-76
2023/05/31 05:01:49;;;;;;;13.47;12.40;;;20.40;66.10;;;;;;5032009;28;20958;-75
2023/05/31 05:04:15;;;;;;;13.50;12.70;;;20.60;67.90;;;;;;5032009;28;20449;-74
2023/05/31 05:06:42;;;;;;;14.60;13.70;;;20.90;67.20;;;;;;5032275;28;20499;-75
2023/05/31 05:09:09;;;;;;;14.40;13.07;;;21.20;67.30;;;;;;5031943;28;20468;-75
2023/05/31 05:11:36;;;;;;;14.47;13.13;;;21.50;66.90;;;;;;5030997;28;21170;-76
2023/05/31 05:14:02;;;;;;;14.10;13.20;;;21.70;65.00;;;;;;5031752;28;20476;-76
2023/05/31 05:16:29;;;;;;;15.20;13.83;;;22.10;61.30;;;;;;5031940;28;20453;-76
2023/05/31 05:18:57;;;;;;;13.37;12.30;;;21.90;60.00;;;;;;5032022;28;20441;-76
2023/05/31 05:21:24;;;;;;;14.00;13.30;;;22.40;60.80;;;;;;5031710;28;20966;-76
2023/05/31 05:23:51;;;;;;;13.97;12.87;;;22.90;63.70;;;;;;5031748;28;20748;-75
2023/05/31 05:26:18;;;;;;;13.50;12.53;;;22.40;59.60;;;;;;5031819;28;20488;-76
2023/05/31 05:28:44;;;;;;;13.23;12.47;;;22.40;59.90;;;;;;5031860;28;20507;-75
2023/05/31 05:31:11;;;;;;;13.13;12.40;;;22.00;57.20;;;;;;5032091;28;20953;-75
2023/05/31 05:33:38;;;;;;;14.33;13.43;;;22.30;60.70;;;;;;5031583;28;20943;-75
2023/05/31 05:36:06;;;;;;;14.07;13.20;;;22.30;60.70;;;;;;5031588;28;21172;-75
2023/05/31 05:38:33;;;;;;;14.47;13.67;;;22.40;59.40;;;;;;5031547;28;20456;-74
2023/05/31 05:41:00;;;;;;;13.20;12.57;;;22.80;58.90;;;;;;5031328;28;20496;-75
2023/05/31 05:43:28;;;;;;;12.63;11.60;;;23.20;56.70;;;;;;5031507;28;20448;-76
2023/05/31 05:45:55;;;;;;;11.80;11.30;;;23.10;56.30;;;;;;5031660;28;20860;-76
2023/05/31 05:48:22;;;;;;;13.20;12.50;;;23.50;56.70;;;;;;5031332;28;20452;-75
2023/05/31 05:50:48;;;;;;;14.03;13.33;;;23.60;57.10;;;;;;5031107;28;20797;-75
2023/05/31 05:53:16;;;;;;;14.20;13.07;;;23.90;55.90;;;;;;5031358;28;20469;-75
2023/05/31 05:55:49;;;;;;;14.73;13.50;;;24.20;55.50;;;;;;5031248;28;20453;-76
2023/05/31 05:58:16;;;;;;;14.73;13.90;;;24.30;55.00;;;;;;5031149;28;20823;-76
2023/05/31 06:00:44;;;;;;;12.93;12.20;;;24.70;53.80;;;;;;5031312;28;20624;-75
2023/05/31 06:03:11;;;;;;;14.00;12.83;;;24.80;54.70;;;;;;5031282;28;20453;-78
2023/05/31 06:05:37;;;;;;;14.60;13.90;;;25.30;55.60;;;;;;5031138;28;20456;-76
2023/05/31 06:08:04;;;;;;;14.47;13.87;;;25.80;54.90;;;;;;5029002;28;20964;-75
2023/05/31 06:10:32;;;;;;;15.73;14.73;;;25.40;54.50;;;;;;5030537;28;20492;-75
2023/05/31 06:12:59;;;;;;;13.93;13.23;;;26.20;55.60;;;;;;5030883;28;20449;-75
2023/05/31 06:15:26;;;;;;;13.23;12.63;;;25.10;54.50;;;;;;5031170;28;20445;-74
2023/05/31 06:17:53;;;;;;;14.10;13.40;;;24.70;51.40;;;;;;5030378;28;20457;-75
2023/05/31 06:20:20;;;;;;;12.73;11.80;;;24.60;52.30;;;;;;5030375;28;20566;-75
2023/05/31 06:22:47;;;;;;;13.33;12.73;;;24.60;51.90;;;;;;5030395;28;20854;-75
2023/05/31 06:25:14;;;;;;;12.90;12.30;;;25.00;55.90;;;;;;5029734;28;20954;-75
2023/05/31 06:27:42;;;;;;;13.60;12.73;;;25.00;53.30;;;;;;5030568;28;20445;-76
2023/05/31 06:30:10;;;;;;;14.80;14.10;;;25.70;53.70;;;;;;5030349;28;20484;-75
2023/05/31 06:32:37;;;;;;;13.50;12.90;;;26.30;52.40;;;;;;5030251;28;20819;-75
2023/05/31 06:35:05;;;;;;;13.20;12.60;;;26.10;53.10;;;;;;5030163;28;20453;-75
2023/05/31 06:37:31;;;;;;;13.63;12.60;;;26.00;52.20;;;;;;5030125;28;20821;-76
2023/05/31 06:39:58;;;;;;;12.70;12.10;;;26.00;53.80;;;;;;5030232;28;20520;-75
2023/05/31 06:42:25;;;;;;;13.00;12.40;;;26.30;51.90;;;;;;5029914;28;20460;-75
2023/05/31 06:44:53;;;;;;;13.37;12.87;;;26.80;53.80;;;;;;5030019;28;20456;-75
2023/05/31 06:47:20;;;;;;;13.23;12.53;;;26.70;49.30;;;;;;5029777;28;20507;-75
2023/05/31 06:49:46;;;;;;;13.50;12.77;;;26.70;52.10;;;;;;5029777;28;20441;-75
2023/05/31 06:52:13;;;;;;;13.80;13.03;;;26.40;50.50;;;;;;5030114;28;20453;-75
2023/05/31 06:54:40;;;;;;;13.17;12.50;;;26.80;49.10;;;;;;5029966;28;20448;-75
2023/05/31 06:57:07;;;;;;;13.70;13.10;;;27.10;51.30;;;;;;5029914;28;20453;-75
2023/05/31 06:59:33;;;;;;;13.60;13.00;;;27.20;51.90;;;;;;5029615;28;20706;-75
2023/05/31 07:02:02;;;;;;;13.73;12.73;;;28.10;52.00;;;;;;5029710;28;20452;-75
2023/05/31 07:04:28;;;;;;;14.07;13.33;;;27.60;48.00;;;;;;5030104;28;20453;-76
2023/05/31 07:06:55;;;;;;;14.30;13.60;;;27.50;48.50;;;;;;5029750;28;20453;-76
2023/05/31 07:09:22;;;;;;;14.17;13.57;;;27.50;46.90;;;;;;5029313;28;20544;-77
2023/05/31 07:11:49;;;;;;;14.27;13.57;;;28.80;45.80;;;;;;5029168;28;20469;-76
2023/05/31 07:14:15;;;;;;;14.00;13.40;;;28.50;43.90;;;;;;5029566;28;20445;-76
2023/05/31 07:16:42;;;;;;;14.03;13.40;;;27.30;46.10;;;;;;5029777;28;21024;-76
2023/05/31 07:19:10;;;;;;;13.83;13.23;;;26.60;46.70;;;;;;5029054;28;21009;-75
2023/05/31 07:21:37;;;;;;;14.40;13.43;;;26.60;46.60;;;;;;5029059;28;20512;-76
2023/05/31 07:24:04;;;;;;;13.90;13.30;;;25.40;47.80;;;;;;5029294;28;20829;-75
2023/05/31 07:26:31;;;;;;;13.87;13.17;;;24.80;49.20;;;;;;5029243;28;20457;-76
2023/05/31 07:28:57;;;;;;;13.33;12.70;;;24.50;50.10;;;;;;5029596;28;20453;-75
2023/05/31 07:31:24;;;;;;;14.13;13.23;;;24.30;50.80;;;;;;5029105;28;20448;-75
2023/05/31 07:33:51;;;;;;;13.37;12.77;;;24.60;52.00;;;;;;5028880;28;20880;-75
2023/05/31 07:36:19;;;;;;;14.23;13.53;;;24.80;52.40;;;;;;5028781;28;20468;-76
2023/05/31 07:38:46;;;;;;;13.50;13.00;;;25.20;53.80;;;;;;5023455;28;20954;-75
2023/05/31 07:41:13;;;;;;;13.80;13.20;;;23.70;51.70;;;;;;5029055;28;20838;-75
2023/05/31 07:43:40;;;;;;;13.97;13.07;;;25.00;51.10;;;;;;5028788;28;20464;-75
2023/05/31 07:46:07;;;;;;;12.97;12.37;;;24.70;52.60;;;;;;5028923;28;20449;-75
2023/05/31 07:48:34;;;;;;;13.47;12.80;;;25.00;54.20;;;;;;5028908;28;20458;-75
2023/05/31 07:51:01;;;;;;;13.63;13.03;;;24.80;52.70;;;;;;5029144;28;20950;-75
2023/05/31 07:53:29;;;;;;;14.97;13.97;;;24.70;53.30;;;;;;5029001;28;20464;-75
2023/05/31 07:55:55;;;;;;;14.03;13.23;;;24.90;53.80;;;;;;5029066;28;20497;-75
2023/05/31 07:58:22;;;;;;;14.87;14.00;;;25.50;53.30;;;;;;5028959;28;20461;-74
2023/05/31 08:00:51;;;;;;;15.90;15.00;;;26.00;53.40;;;;;;5028655;28;20487;-75
2023/05/31 08:03:18;;;;;;;14.33;13.70;;;25.80;51.30;;;;;;5028638;28;20519;-76
2023/05/31 08:05:45;;;;;;;14.63;13.83;;;25.70;51.50;;;;;;5028835;28;20457;-75
2023/05/31 08:08:12;;;;;;;14.67;13.97;;;25.60;50.80;;;;;;5029069;28;20448;-77
2023/05/31 08:10:40;;;;;;;14.70;14.00;;;25.60;49.70;;;;;;5028454;28;20479;-74
2023/05/31 08:13:07;;;;;;;14.50;13.70;;;25.50;49.20;;;;;;5028944;28;20953;-75
2023/05/31 08:15:34;;;;;;;15.47;14.77;;;25.00;49.80;;;;;;5029028;28;20721;-77
2023/05/31 08:18:01;;;;;;;15.27;14.07;;;25.20;50.00;;;;;;5028847;28;20453;-75
2023/05/31 08:20:28;;;;;;;14.73;14.03;;;25.30;49.60;;;;;;5029561;28;20546;-76
2023/05/31 08:22:54;;;;;;;13.90;13.30;;;26.10;49.50;;;;;;5029591;28;20449;-77
2023/05/31 08:25:22;;;;;;;14.33;13.43;;;26.20;48.80;;;;;;5029010;28;20453;-76
2023/05/31 08:27:50;;;;;;;13.70;13.10;;;26.30;48.90;;;;;;5029079;28;20712;-75
2023/05/31 08:30:17;;;;;;;13.90;13.27;;;26.20;49.80;;;;;;5028955;28;20449;-76
2023/05/31 08:32:43;;;;;;;15.40;14.60;;;26.90;50.00;;;;;;5029241;28;20440;-76
2023/05/31 08:35:10;;;;;;;14.73;13.93;;;26.20;49.30;;;;;;5029309;28;20444;-76
2023/05/31 08:37:38;;;;;;;16.47;15.40;;;26.80;49.40;;;;;;5028739;28;20465;-76
2023/05/31 08:40:06;;;;;;;14.90;14.20;;;27.10;50.80;;;;;;5028635;28;20453;-75
2023/05/31 08:42:40;;;;;;;14.50;13.80;;;26.70;50.60;;;;;;5028674;28;20548;-76
2023/05/31 08:45:10;;;;;;;15.63;14.50;;;27.00;51.80;;;;;;5029018;28;20512;-75
2023/05/31 08:47:43;;;;;;;14.10;13.20;;;26.50;51.60;;;;;;5030605;28;20476;-77
2023/05/31 08:50:11;;;;;;;14.97;14.27;;;27.00;50.40;;;;;;5032591;28;20444;-77
2023/05/31 08:52:39;;;;;;;14.70;14.03;;;27.00;49.70;;;;;;5032370;28;20952;-76
2023/05/31 08:55:07;;;;;;;16.07;15.07;;;27.60;49.30;;;;;;5032090;28;20503;-77
2023/05/31 08:57:35;;;;;;;14.40;13.53;;;27.90;46.90;;;;;;5032130;28;20853;-76
2023/05/31 09:00:09;;;;;;;15.33;14.53;;;27.60;50.60;;;;;;5032031;28;20449;-76
2023/05/31 09:02:37;;;;;;;15.87;15.10;;;27.80;49.20;;;;;;5030805;28;20526;-77
2023/05/31 09:05:05;;;;;;;15.03;14.43;;;27.50;51.10;;;;;;5031991;28;20463;-75
2023/05/31 09:07:32;;;;;;;15.43;14.57;;;27.70;50.60;;;;;;5031851;28;20452;-76
2023/05/31 09:09:59;;;;;;;15.20;14.50;;;27.70;50.60;;;;;;5031728;28;20485;-76
2023/05/31 09:12:25;;;;;;;14.90;14.00;;;28.00;51.50;;;;;;5032406;28;20441;-77
2023/05/31 09:14:53;;;;;;;15.50;14.80;;;27.80;50.80;;;;;;5031952;28;20842;-76
2023/05/31 09:17:20;;;;;;;14.57;13.97;;;28.60;50.00;;;;;;5031679;28;21177;-77
2023/05/31 09:19:52;;;;;;;15.77;14.97;;;28.00;51.00;;;;;;5031867;28;20449;-78
2023/05/31 09:22:19;;;;;;;15.07;14.33;;;27.70;47.10;;;;;;5031507;28;20488;-75
2023/05/31 09:24:56;;;;;;;14.90;14.00;;;28.10;50.50;;;;;;5031494;28;20456;-75
2023/05/31 09:27:23;;;;;;;15.47;14.87;;;29.00;47.30;;;;;;5032481;28;20526;-76
2023/05/31 09:29:54;;;;;;;14.70;13.80;;;29.60;49.50;;;;;;5032384;28;20713;-81
2023/05/31 09:32:21;;;;;;;14.97;14.30;;;29.50;46.70;;;;;;5031957;28;20436;-76
2023/05/31 09:34:48;;;;;;;14.50;13.60;;;29.30;46.60;;;;;;5031446;28;20461;-75
2023/05/31 09:37:25;;;;;;;13.80;13.10;;;28.70;47.80;;;;;;5031287;28;21016;-82
2023/05/31 09:39:56;;;;;;;15.90;15.30;;;28.10;48.70;;;;;;5031366;28;20459;-75
2023/05/31 09:42:25;;;;;;;15.80;14.80;;;27.40;46.70;;;;;;5022687;28;20550;-76
2023/05/31 09:44:53;;;;;;;14.20;13.60;;;27.60;48.90;;;;;;5017081;28;20458;-78
2023/05/31 09:47:24;;;;;;;15.03;14.33;;;27.70;46.50;;;;;;5011777;28;20537;-77
2023/05/31 09:49:53;;;;;;;15.00;14.27;;;27.70;47.80;;;;;;5012109;28;20454;-76
2023/05/31 09:52:27;;;;;;;14.13;13.50;;;27.70;46.70;;;;;;5012098;28;20449;-77
2023/05/31 09:54:56;;;;;;;14.80;14.20;;;27.30;47.50;;;;;;5012079;28;20441;-77
2023/05/31 09:57:32;;;;;;;15.27;14.57;;;26.90;47.00;;;;;;5011747;28;20476;-76
2023/05/31 09:59:59;;;;;;;15.50;14.70;;;27.60;48.80;;;;;;5011770;28;20809;-77
2023/05/31 10:02:27;;;;;;;16.40;15.60;;;28.50;47.10;;;;;;5011982;28;20576;-77
2023/05/31 10:04:56;;;;;;;14.97;14.17;;;28.80;46.00;;;;;;5011691;28;20450;-77
2023/05/31 10:07:26;;;;;;;15.60;15.00;;;28.20;46.00;;;;;;5011806;28;20986;-77
2023/05/31 10:09:53;;;;;;;14.80;14.00;;;28.40;47.50;;;;;;5011429;28;20489;-77
2023/05/31 10:12:22;;;;;;;16.30;15.50;;;27.90;47.10;;;;;;5011715;28;20445;-77
2023/05/31 10:14:54;;;;;;;15.37;14.77;;;28.20;45.50;;;;;;5013032;28;20450;-77
2023/05/31 10:17:24;;;;;;;15.33;14.50;;;28.00;44.30;;;;;;5012076;28;20454;-77
2023/05/31 10:19:57;;;;;;;15.10;14.20;;;27.80;44.30;;;;;;5011826;28;20619;-76
2023/05/31 10:22:30;;;;;;;15.83;15.10;;;27.80;44.60;;;;;;5011230;28;21017;-77
2023/05/31 10:25:03;;;;;;;15.50;14.83;;;28.50;46.30;;;;;;5011813;28;20453;-77
2023/05/31 10:27:36;;;;;;;15.27;14.50;;;28.20;44.90;;;;;;5011152;28;20453;-77
2023/05/31 10:30:04;;;;;;;15.30;14.60;;;27.80;45.00;;;;;;5009578;28;20823;-77
2023/05/31 10:32:34;;;;;;;15.47;14.77;;;27.80;44.90;;;;;;5011495;28;20460;-77
2023/05/31 10:35:01;;;;;;;15.30;14.27;;;28.50;46.30;;;;;;5011405;28;20454;-77
2023/05/31 10:37:31;;;;;;;17.60;16.30;;;28.60;45.20;;;;;;5011787;28;20454;-77
2023/05/31 10:40:05;;;;;;;14.50;13.80;;;28.70;45.70;;;;;;5011397;28;20446;-76
2023/05/31 10:42:41;;;;;;;16.13;15.43;;;28.80;45.40;;;;;;5010911;28;20493;-77
2023/05/31 10:45:14;;;;;;;15.37;14.73;;;29.60;44.10;;;;;;5011231;28;20458;-77
2023/05/31 10:47:46;;;;;;;15.57;14.73;;;29.20;45.10;;;;;;5011547;28;20454;-77
2023/05/31 10:50:19;;;;;;;15.43;14.50;;;29.70;45.00;;;;;;5011461;28;20450;-77
2023/05/31 10:52:49;;;;;;;16.00;15.20;;;30.30;46.50;;;;;;5011228;28;20944;-77
2023/05/31 10:55:17;;;;;;;15.13;14.53;;;30.10;40.90;;;;;;5011221;28;20477;-77
2023/05/31 10:57:43;;;;;;;17.13;16.23;;;30.50;44.50;;;;;;5010880;28;20511;-76
2023/05/31 11:00:12;;;;;;;16.83;16.13;;;30.20;44.40;;;;;;5010916;28;20457;-77
2023/05/31 11:02:46;;;;;;;15.97;15.27;;;30.20;43.70;;;;;;5010962;28;20492;-77
2023/05/31 11:05:20;;;;;;;14.40;13.70;;;29.20;42.70;;;;;;5011205;28;20466;-77
2023/05/31 11:07:48;;;;;;;15.10;14.47;;;28.80;44.20;;;;;;5011094;28;20449;-78
2023/05/31 11:10:26;;;;;;;16.00;15.30;;;29.60;44.80;;;;;;5010189;28;20833;-77
2023/05/31 11:12:54;;;;;;;14.40;13.80;;;29.40;40.50;;;;;;5010925;28;20449;-77
2023/05/31 11:15:21;;;;;;;16.50;15.50;;;29.40;44.00;;;;;;5010805;28;20556;-77
2023/05/31 11:17:55;;;;;;;16.00;15.00;;;29.20;42.50;;;;;;5010823;28;20452;-76
2023/05/31 11:20:26;;;;;;;14.43;13.87;;;29.00;43.40;;;;;;5010787;28;20461;-77
2023/05/31 11:23:24;;;;;;;15.60;14.80;;;29.80;42.10;;;;;;5010863;28;20496;-77
2023/05/31 11:26:24;;;;;;;16.20;15.30;;;29.50;39.20;;;;;;5010785;28;20449;-76
2023/05/31 11:28:56;;;;;;;15.80;15.00;;;29.10;38.40;;;;;;5010968;28;21262;-76
2023/05/31 11:32:01;;;;;;;16.57;15.77;;;29.50;40.20;;;;;;5010855;28;20545;-76
2023/05/31 11:34:33;;;;;;;15.20;14.50;;;29.80;41.70;;;;;;5010796;28;20453;-76
2023/05/31 11:37:02;;;;;;;16.63;15.60;;;29.90;40.10;;;;;;5011007;28;20862;-78
2023/05/31 11:39:30;;;;;;;16.20;15.20;;;30.20;38.10;;;;;;5011020;28;20520;-76
2023/05/31 11:41:58;;;;;;;16.23;15.53;;;30.30;38.20;;;;;;5010340;28;20852;-76
2023/05/31 11:44:30;;;;;;;15.57;14.70;;;31.00;37.40;;;;;;5010523;28;20453;-77
2023/05/31 11:47:01;;;;;;;15.80;15.10;;;30.60;36.20;;;;;;5010837;28;20453;-77
2023/05/31 11:49:28;;;;;;;15.37;14.70;;;29.30;36.90;;;;;;5010775;28;20458;-76
2023/05/31 11:51:56;;;;;;;15.60;14.90;;;29.50;37.70;;;;;;5010393;28;20453;-76
2023/05/31 11:54:27;;;;;;;16.50;15.63;;;30.40;37.30;;;;;;5010066;28;20442;-76
2023/05/31 11:56:59;;;;;;;15.43;14.83;;;30.70;37.00;;;;;;5010110;28;20457;-76
2023/05/31 11:59:27;;;;;;;15.63;14.93;;;30.20;36.90;;;;;;5010472;28;20493;-76
2023/05/31 12:01:58;;;;;;;15.53;14.73;;;30.30;37.00;;;;;;5009626;28;20511;-77
2023/05/31 12:04:32;;;;;;;15.60;14.90;;;30.10;36.80;;;;;;5010188;28;20468;-77
2023/05/31 12:06:59;;;;;;;15.30;14.60;;;30.10;37.10;;;;;;5010183;28;20793;-76
2023/05/31 12:09:26;;;;;;;16.03;15.23;;;30.40;36.90;;;;;;5010250;28;20959;-77
2023/05/31 12:11:54;;;;;;;16.30;15.70;;;30.70;37.00;;;;;;5010204;28;20475;-77
2023/05/31 12:14:23;;;;;;;16.40;15.53;;;30.80;36.10;;;;;;5010066;28;20449;-77
2023/05/31 12:16:50;;;;;;;16.33;15.53;;;30.50;36.40;;;;;;5009981;28;20449;-77
2023/05/31 12:19:17;;;;;;;15.70;15.10;;;30.00;36.20;;;;;;5010354;28;20452;-78
2023/05/31 12:21:44;;;;;;;15.73;15.00;;;29.60;36.70;;;;;;5010768;28;20845;-78
2023/05/31 12:24:15;;;;;;;16.00;15.27;;;29.50;37.30;;;;;;5013600;28;20816;-77
2023/05/31 12:26:44;;;;;;;15.80;15.00;;;30.10;35.90;;;;;;5013782;28;20461;-77
2023/05/31 12:29:11;;;;;;;16.70;15.90;;;29.80;36.10;;;;;;5013897;28;20454;-77
2023/05/31 12:31:40;;;;;;;15.43;14.83;;;30.10;35.70;;;;;;5013688;28;20500;-77
2023/05/31 12:34:08;;;;;;;15.97;15.20;;;29.70;34.20;;;;;;5013704;28;20465;-78
2023/05/31 12:36:52;;;;;;;15.77;14.90;;;29.20;34.60;;;;;;5013475;28;20449;-78
2023/05/31 12:39:20;;;;;;;16.13;15.40;;;29.50;35.20;;;;;;5013436;28;20450;-77
2023/05/31 12:41:48;;;;;;;14.90;14.30;;;29.70;35.00;;;;;;5013135;28;20508;-77
2023/05/31 12:44:18;;;;;;;15.80;15.20;;;30.30;35.10;;;;;;5013485;28;20949;-77
2023/05/31 12:46:48;;;;;;;15.90;15.27;;;30.70;34.40;;;;;;5013555;28;20449;-77
2023/05/31 12:49:20;;;;;;;16.07;15.20;;;30.60;34.20;;;;;;5013624;28;20778;-77
2023/05/31 12:51:46;;;;;;;15.00;14.30;;;29.90;33.90;;;;;;5013230;28;20855;-77
2023/05/31 12:54:13;;;;;;;15.33;14.50;;;30.10;34.30;;;;;;5013159;28;20449;-77
2023/05/31 12:56:40;;;;;;;15.30;14.60;;;30.40;34.90;;;;;;5013037;28;20463;-77
2023/05/31 12:59:08;;;;;;;15.33;14.83;;;30.40;34.60;;;;;;5012773;28;20469;-76
2023/05/31 13:01:35;;;;;;;15.90;15.10;;;30.20;33.80;;;;;;5012973;28;20580;-78
2023/05/31 13:04:03;;;;;;;15.50;14.90;;;29.40;34.30;;;;;;5012901;28;20456;-76
2023/05/31 13:06:30;;;;;;;15.50;14.73;;;29.30;34.80;;;;;;5013032;28;20445;-77
2023/05/31 13:08:57;;;;;;;14.90;14.10;;;29.00;35.60;;;;;;5012912;28;20474;-77
2023/05/31 13:11:23;;;;;;;15.60;14.90;;;29.50;34.80;;;;;;5012706;28;20485;-77
2023/05/31 13:13:50;;;;;;;14.93;14.33;;;29.20;32.80;;;;;;5013254;28;20509;-78
2023/05/31 13:16:17;;;;;;;15.77;15.07;;;29.40;32.90;;;;;;5012829;28;20461;-77
2023/05/31 13:18:44;;;;;;;15.27;14.37;;;29.60;33.40;;;;;;5013369;28;20846;-78
2023/05/31 13:21:12;;;;;;;14.20;13.60;;;30.10;33.60;;;;;;5012860;28;20461;-77
2023/05/31 13:23:38;;;;;;;15.00;14.40;;;30.30;31.80;;;;;;5012598;28;20994;-77
2023/05/31 13:26:05;;;;;;;15.20;14.43;;;29.60;31.80;;;;;;5012704;28;20922;-78
2023/05/31 13:28:32;;;;;;;15.27;14.33;;;29.90;33.10;;;;;;5012776;28;20453;-78
2023/05/31 13:30:58;;;;;;;14.43;13.73;;;30.20;32.80;;;;;;5013082;28;20458;-78
2023/05/31 13:33:27;;;;;;;15.40;14.30;;;30.10;32.40;;;;;;5012298;28;20446;-78
2023/05/31 13:35:55;;;;;;;16.07;15.33;;;29.90;33.10;;;;;;5013036;28;20863;-78
2023/05/31 13:38:24;;;;;;;15.10;14.20;;;30.30;32.50;;;;;;5012805;28;20449;-78
2023/05/31 13:40:51;;;;;;;14.90;14.23;;;30.70;32.40;;;;;;5012391;28;20449;-78
2023/05/31 13:43:18;;;;;;;14.50;13.80;;;30.10;31.40;;;;;;5012475;28;20605;-78
2023/05/31 13:45:45;;;;;;;13.27;12.73;;;30.00;32.50;;;;;;5012555;28;20457;-79
2023/05/31 13:48:13;;;;;;;13.03;12.40;;;30.30;31.70;;;;;;5012747;28;20455;-77
2023/05/31 13:50:39;;;;;;;13.50;13.00;;;29.50;31.90;;;;;;5012247;28;20458;-77
2023/05/31 13:53:06;;;;;;;13.90;13.30;;;28.90;32.20;;;;;;5012243;28;20453;-77
2023/05/31 13:55:34;;;;;;;15.83;15.03;;;28.80;32.60;;;;;;5012261;28;20461;-77
2023/05/31 13:58:01;;;;;;;14.63;14.03;;;28.80;31.30;;;;;;5012024;28;20504;-77
2023/05/31 14:00:27;;;;;;;15.00;14.10;;;29.00;33.20;;;;;;5012259;28;20445;-78
2023/05/31 14:02:55;;;;;;;13.60;13.00;;;29.40;31.80;;;;;;5012106;28;20497;-77
2023/05/31 14:05:21;;;;;;;14.30;13.70;;;29.70;30.30;;;;;;5011824;28;20916;-78
2023/05/31 14:07:49;;;;;;;15.07;14.20;;;30.20;30.90;;;;;;5011589;28;20450;-78
2023/05/31 14:10:15;;;;;;;14.27;13.67;;;29.90;31.10;;;;;;5011557;28;20493;-78
2023/05/31 14:12:44;;;;;;;14.10;13.50;;;29.60;31.90;;;;;;5012058;28;20460;-77
2023/05/31 14:15:11;;;;;;;14.70;14.20;;;29.70;32.20;;;;;;5011999;28;20485;-78
2023/05/31 14:17:38;;;;;;;14.90;14.20;;;29.90;31.30;;;;;;5011650;28;20459;-78
2023/05/31 14:20:05;;;;;;;14.27;13.50;;;29.80;32.00;;;;;;5012056;28;20745;-78
2023/05/31 14:22:32;;;;;;;13.83;13.13;;;30.00;31.80;;;;;;5011489;28;21019;-78
2023/05/31 14:24:59;;;;;;;14.73;14.03;;;29.20;32.20;;;;;;5011944;28;20822;-77
2023/05/31 14:27:26;;;;;;;14.53;13.93;;;29.10;32.80;;;;;;5011589;28;20449;-78
2023/05/31 14:29:54;;;;;;;14.30;13.20;;;29.30;32.40;;;;;;5011436;28;20462;-79
2023/05/31 14:32:20;;;;;;;14.43;13.73;;;29.20;31.70;;;;;;5011535;28;20936;-78
2023/05/31 14:34:47;;;;;;;13.73;13.13;;;28.90;32.80;;;;;;5011465;28;20909;-78
2023/05/31 14:37:14;;;;;;;13.60;13.00;;;28.50;32.90;;;;;;5011889;28;20473;-78
2023/05/31 14:39:41;;;;;;;13.70;13.13;;;28.20;34.20;;;;;;5011461;28;20798;-77
2023/05/31 14:42:08;;;;;;;13.33;12.43;;;28.20;33.30;;;;;;5011134;28;20517;-78
2023/05/31 14:44:35;;;;;;;13.00;12.30;;;28.40;33.10;;;;;;5010533;28;20878;-78
2023/05/31 14:47:04;;;;;;;14.60;13.90;;;28.60;33.40;;;;;;5011534;28;20493;-78
2023/05/31 14:49:31;;;;;;;14.03;13.53;;;29.00;33.20;;;;;;5011299;28;20572;-78
2023/05/31 14:51:58;;;;;;;11.70;11.20;;;28.80;33.40;;;;;;5011333;28;20441;-77
2023/05/31 14:54:25;;;;;;;11.77;11.30;;;29.00;33.00;;;;;;5011587;28;20450;-77
2023/05/31 14:56:52;;;;;;;12.77;12.17;;;28.80;34.40;;;;;;5010853;28;20927;-77
2023/05/31 14:59:19;;;;;;;13.47;12.70;;;28.30;33.40;;;;;;5011097;28;20462;-77
2023/05/31 15:01:46;;;;;;;12.83;12.03;;;28.00;33.70;;;;;;5011033;28;20453;-78
2023/05/31 15:04:15;;;;;;;13.43;12.50;;;27.40;34.40;;;;;;5010930;28;20458;-75
2023/05/31 15:06:43;;;;;;;11.83;11.23;;;26.90;35.10;;;;;;5010893;28;20485;-76
2023/05/31 15:09:12;;;;;;;12.27;11.67;;;26.50;35.70;;;;;;5010730;28;20948;-76
2023/05/31 15:11:38;;;;;;;11.40;10.90;;;26.40;36.40;;;;;;5010892;28;20496;-76
2023/05/31 15:14:05;;;;;;;12.77;12.03;;;26.20;36.10;;;;;;5011092;28;20500;-76
2023/05/31 15:16:32;;;;;;;11.50;11.10;;;26.30;36.20;;;;;;5010715;28;20939;-76
2023/05/31 15:18:58;;;;;;;11.60;11.10;;;26.20;36.00;;;;;;5011117;28;20457;-76
2023/05/31 15:21:26;;;;;;;12.33;11.63;;;26.20;36.50;;;;;;5011129;28;20458;-78
2023/05/31 15:23:53;;;;;;;11.23;10.73;;;26.10;36.60;;;;;;5010756;28;20490;-76
2023/05/31 15:26:22;;;;;;;12.27;11.60;;;26.00;36.30;;;;;;5010700;28;20461;-78
2023/05/31 15:28:48;;;;;;;12.63;11.93;;;25.90;36.20;;;;;;5010616;28;20821;-76
2023/05/31 15:31:15;;;;;;;11.50;10.90;;;25.70;36.70;;;;;;5010646;28;20445;-77
2023/05/31 15:33:42;;;;;;;12.33;11.83;;;25.90;37.40;;;;;;5010773;28;20560;-76
2023/05/31 15:36:09;;;;;;;11.97;11.20;;;25.90;37.50;;;;;;5010777;28;20461;-77
2023/05/31 15:38:37;;;;;;;11.30;10.80;;;25.90;37.00;;;;;;5010751;28;20561;-76
2023/05/31 15:41:04;;;;;;;11.93;11.40;;;25.80;37.50;;;;;;5010382;28;20454;-76
2023/05/31 15:43:30;;;;;;;11.20;10.70;;;25.80;35.90;;;;;;5010143;28;20497;-76
2023/05/31 15:45:57;;;;;;;11.20;10.70;;;25.90;36.40;;;;;;5010452;28;20492;-75
2023/05/31 15:48:24;;;;;;;12.77;12.07;;;25.80;36.90;;;;;;5010400;28;20446;-76
2023/05/31 15:50:51;;;;;;;11.77;11.27;;;25.70;36.50;;;;;;5010757;28;20464;-76
2023/05/31 15:53:18;;;;;;;11.03;10.43;;;25.90;41.10;;;;;;5010309;28;20966;-75
2023/05/31 15:55:47;;;;;;;11.97;11.47;;;26.40;42.00;;;;;;5010833;28;20457;-75
2023/05/31 15:58:14;;;;;;;11.20;10.73;;;26.90;42.90;;;;;;5014417;28;20556;-76
2023/05/31 16:00:41;;;;;;;12.67;12.07;;;26.30;43.60;;;;;;5014531;28;20456;-76
2023/05/31 16:03:07;;;;;;;10.90;10.40;;;26.00;41.40;;;;;;5014363;28;20691;-76
2023/05/31 16:05:34;;;;;;;10.97;10.50;;;26.30;43.40;;;;;;5014227;28;20456;-76
2023/05/31 16:08:04;;;;;;;10.63;10.23;;;26.30;41.80;;;;;;5014015;28;20453;-76
2023/05/31 16:10:31;;;;;;;10.30;9.80;;;26.40;42.20;;;;;;5014151;28;20583;-76
2023/05/31 16:12:59;;;;;;;10.23;9.73;;;26.00;42.50;;;;;;5014520;28;20456;-76
2023/05/31 16:15:26;;;;;;;10.47;9.97;;;26.30;41.80;;;;;;5014285;28;20464;-76
2023/05/31 16:17:53;;;;;;;12.93;12.20;;;26.10;43.60;;;;;;5013966;28;20461;-76
2023/05/31 16:20:19;;;;;;;13.03;12.37;;;25.90;41.10;;;;;;5014402;28;20764;-76
2023/05/31 16:22:46;;;;;;;13.07;11.77;;;25.90;39.90;;;;;;5013632;28;21014;-76
2023/05/31 16:25:13;;;;;;;10.97;10.40;;;26.10;42.60;;;;;;5014085;28;20458;-77
2023/05/31 16:27:39;;;;;;;11.73;11.23;;;26.10;43.20;;;;;;5014226;28;20450;-77